This is the latest recevied weather packets stored in our database for station/object OE6PLD-13. If no packets are shown the sender has not sent any weather packets the latest 1 day(s).
| Time | Temp. | Humidity | Pressure | Rain* | Wind** | Luminosity | Snow |
|---|---|---|---|---|---|---|---|
| 1778083075 | 21.11° C | 56% | 1012.5 hPa | 0.76 mm | - | 88 W/m² | - |
| 1778082525 | 21.67° C | 55% | 1012.3 hPa | 0.76 mm | - | 231 W/m² | - |
| 1778081975 | 21.67° C | 56% | 1012.6 hPa | 0.76 mm | - | 163 W/m² | - |
| 1778081425 | 22.22° C | 54% | 1012.5 hPa | 0.76 mm | - | 159 W/m² | - |
| 1778081058 | 22.78° C | 53% | 1012.6 hPa | 0.76 mm | - | 281 W/m² | - |
| 1778080875 | 22.22° C | 53% | 1012.4 hPa | 0.76 mm | - | 230 W/m² | - |
| 1778079958 | 23.89° C | 49% | 1012.3 hPa | 0.76 mm | - | 297 W/m² | - |
| 1778079408 | 23.33° C | 52% | 1012.5 hPa | 0.76 mm | - | 363 W/m² | - |
| 1778078858 | 23.33° C | 51% | 1012.3 hPa | 0.76 mm | - | 352 W/m² | - |
| 1778078124 | 23.89° C | 51% | 1012.5 hPa | 0.76 mm | - | 396 W/m² | - |
| 1778077391 | 23.89° C | 51% | 1012.6 hPa | 0.76 mm | - | 333 W/m² | - |
| 1778076474 | 23.33° C | 50% | 1012.5 hPa | 0.76 mm | - | 162 W/m² | - |
| 1778075740 | 23.89° C | 48% | 1012.8 hPa | 0.76 mm | - | 392 W/m² | - |
| 1778075557 | 23.89° C | 48% | 1012.4 hPa | 0.76 mm | - | 391 W/m² | - |
| 1778075190 | 23.33° C | 48% | 1012.6 hPa | 0.76 mm | - | 414 W/m² | - |
| 1778074640 | 24.44° C | 47% | 1012.6 hPa | 0.76 mm | - | 406 W/m² | - |
| 1778074090 | 24.44° C | 49% | 1012.7 hPa | 0.76 mm | - | 457 W/m² | - |
| 1778073540 | 24.44° C | 48% | 1012.7 hPa | 0.76 mm | - | 296 W/m² | - |
| 1778072990 | 25° C | 48% | 1012.6 hPa | 0.76 mm | - | 536 W/m² | - |
| 1778072623 | 23.89° C | 50% | 1012.7 hPa | 0.76 mm | - | 452 W/m² | - |
| 1778072256 | 24.44° C | 48% | 1012.6 hPa | 0.76 mm | - | 566 W/m² | - |
| 1778072073 | 23.33° C | 50% | 1012.7 hPa | 0.76 mm | - | 635 W/m² | - |
| 1778071706 | 23.33° C | 51% | 1012.9 hPa | 0.76 mm | - | 363 W/m² | - |
| 1778071523 | 23.33° C | 50% | 1012.7 hPa | 0.76 mm | - | 193 W/m² | - |
| 1778070973 | 22.78° C | 49% | 1013 hPa | 0.76 mm | - | 646 W/m² | - |
* Rain latest hour (hover to see other rain measurements)
** Current wind speed in m/s (hover to see current wind gust speed)